createdAt,value
2019-01-05T00:00:49.211Z,92.69
2019-01-05T00:03:45.977Z,91.96
2019-01-05T00:06:36.636Z,92.25
2019-01-05T00:09:26.278Z,92.23
2019-01-05T00:12:14.855Z,91.78
2019-01-05T00:15:07.671Z,91.77
2019-01-05T00:17:54.269Z,91.66
2019-01-05T00:20:51.192Z,91.45
2019-01-05T00:23:31.279Z,91.07
2019-01-05T00:26:20.154Z,91.94
2019-01-05T00:29:09.580Z,91.55
2019-01-05T00:32:00.689Z,91.62
2019-01-05T00:34:59.487Z,91.89
2019-01-05T00:38:05.986Z,91.53
2019-01-05T00:41:01.488Z,91.72
2019-01-05T00:43:49.547Z,91.18
2019-01-05T00:46:36.225Z,90.43
2019-01-05T00:49:28.387Z,90.72
2019-01-05T00:52:18.278Z,90.28
2019-01-05T00:55:13.968Z,91.37
2019-01-05T00:58:00.529Z,92.44
2019-01-05T01:00:51.551Z,91.49
2019-01-05T01:03:51.325Z,92.75
2019-01-05T01:06:39.932Z,91.80
2019-01-05T01:09:26.640Z,92.49
2019-01-05T01:12:13.533Z,93.33
2019-01-05T01:15:04.909Z,92.43
2019-01-05T01:17:57.195Z,92.73
2019-01-05T01:20:44.949Z,92.18
2019-01-05T01:23:32.052Z,92.78
2019-01-05T01:26:26.485Z,92.31
2019-01-05T01:29:29.332Z,92.66
2019-01-05T01:32:20.149Z,92.85
2019-01-05T01:35:04.287Z,92.36
2019-01-05T01:38:37.026Z,91.46
2019-01-05T01:41:27.536Z,92.08
2019-01-05T01:44:16.563Z,92.18
2019-01-05T01:47:16.895Z,92.78
2019-01-05T01:50:03.489Z,91.90
2019-01-05T01:52:51.265Z,91.96
2019-01-05T01:55:38.311Z,92.69
2019-01-05T01:58:35.293Z,92.36
2019-01-05T02:01:32.584Z,91.76
2019-01-05T02:04:23.378Z,92.65
2019-01-05T02:07:11.131Z,92.41
2019-01-05T02:10:05.034Z,91.79
2019-01-05T02:13:02.416Z,91.16
2019-01-05T02:16:02.883Z,91.58
2019-01-05T02:19:38.005Z,91.95
2019-01-05T02:22:55.440Z,91.58
2019-01-05T02:26:16.058Z,91.93
2019-01-05T02:29:58.954Z,91.32
2019-01-05T02:33:06.907Z,92.64
2019-01-05T02:36:27.535Z,93.12
2019-01-05T02:39:51.033Z,92.56
2019-01-05T02:43:04.496Z,92.68
2019-01-05T02:46:43.070Z,93.56
2019-01-05T02:50:33.737Z,92.85
2019-01-05T02:53:48.682Z,93.02
2019-01-05T02:57:19.503Z,92.92
2019-01-05T03:00:25.028Z,92.53
2019-01-05T03:03:37.988Z,92.76
2019-01-05T03:07:13.015Z,92.69
2019-01-05T03:10:31.028Z,92.29
2019-01-05T03:14:23.720Z,91.84
2019-01-05T03:17:31.409Z,92.47
2019-01-05T03:20:54.657Z,92.53
2019-01-05T03:24:22.084Z,92.65
2019-01-05T03:28:03.075Z,93.45
2019-01-05T03:31:23.258Z,93.04
2019-01-05T03:35:00.249Z,93.03
2019-01-05T03:38:53.499Z,92.40
2019-01-05T03:42:16.576Z,94.00
2019-01-05T03:45:59.682Z,93.98
2019-01-05T03:49:09.537Z,94.53
2019-01-05T03:52:46.419Z,95.05
2019-01-05T03:56:38.595Z,94.96
2019-01-05T04:00:20.733Z,95.46
2019-01-05T04:03:50.089Z,95.29
2019-01-05T04:07:39.404Z,95.90
2019-01-05T04:11:16.373Z,95.70
2019-01-05T04:14:51.270Z,96.33
2019-01-05T04:18:15.448Z,96.72
2019-01-05T04:22:16.988Z,95.94
2019-01-05T04:25:45.056Z,96.14
2019-01-05T04:29:35.096Z,96.05
2019-01-05T04:33:04.974Z,96.00
2019-01-05T04:36:31.905Z,95.82
2019-01-05T04:40:18.880Z,95.25
2019-01-05T04:43:34.876Z,96.68
2019-01-05T04:47:10.615Z,96.51
2019-01-05T04:50:40.875Z,96.87
2019-01-05T04:54:25.203Z,96.02
2019-01-05T04:57:37.173Z,95.89
2019-01-05T05:01:20.278Z,96.62
2019-01-05T05:04:50.533Z,96.83
2019-01-05T05:08:01.980Z,96.59
2019-01-05T05:11:27.857Z,96.12
2019-01-05T05:15:09.965Z,96.44
2019-01-05T05:18:57.504Z,97.52
2019-01-05T05:22:27.404Z,97.58
2019-01-05T05:25:48.222Z,97.76
2019-01-05T05:29:30.207Z,97.41
2019-01-05T05:33:06.522Z,97.41
2019-01-05T05:36:39.636Z,96.85
2019-01-05T05:40:20.749Z,96.96
2019-01-05T05:43:57.029Z,97.37
2019-01-05T05:47:19.553Z,96.39
2019-01-05T05:50:37.570Z,96.49
2019-01-05T05:53:59.881Z,97.48
2019-01-05T05:57:34.939Z,97.22
2019-01-05T06:00:59.960Z,95.63
2019-01-05T06:04:36.803Z,97.31
2019-01-05T06:07:58.361Z,96.78
2019-01-05T06:11:27.899Z,96.45
2019-01-05T06:15:06.642Z,97.52
2019-01-05T06:18:44.770Z,97.52
2019-01-05T06:22:31.649Z,97.80
2019-01-05T06:26:14.698Z,97.41
2019-01-05T06:29:49.587Z,97.82
2019-01-05T06:33:25.334Z,98.17
2019-01-05T06:37:18.711Z,98.72
2019-01-05T06:40:32.454Z,97.80
2019-01-05T06:44:31.309Z,97.71
2019-01-05T06:48:01.852Z,97.00
2019-01-05T06:51:40.577Z,97.25
2019-01-05T06:55:00.841Z,97.54
2019-01-05T06:58:46.131Z,97.17
2019-01-05T07:02:33.234Z,97.13
2019-01-05T07:06:05.869Z,96.69
2019-01-05T07:09:28.708Z,96.01
2019-01-05T07:13:21.960Z,96.71
2019-01-05T07:17:15.626Z,96.87
2019-01-05T07:20:47.902Z,96.28
2019-01-05T07:24:19.419Z,95.83
2019-01-05T07:27:53.315Z,97.05
2019-01-05T07:31:09.450Z,96.76
2019-01-05T07:34:34.158Z,97.73
2019-01-05T07:38:09.690Z,97.67
2019-01-05T07:41:36.457Z,97.90
2019-01-05T07:44:52.705Z,97.71
2019-01-05T07:48:32.867Z,97.82
2019-01-05T07:51:55.568Z,97.78
2019-01-05T07:55:19.656Z,97.63
2019-01-05T07:59:24.833Z,98.15
2019-01-05T08:02:52.456Z,98.01
2019-01-05T08:06:41.517Z,97.14
2019-01-05T08:10:03.060Z,97.68
2019-01-05T08:13:29.749Z,97.80
2019-01-05T08:16:57.768Z,98.45
2019-01-05T08:20:28.913Z,99.05
2019-01-05T08:24:02.226Z,98.80
2019-01-05T08:27:32.054Z,98.22
2019-01-05T08:31:10.619Z,98.47
2019-01-05T08:34:32.614Z,97.81
2019-01-05T08:38:05.872Z,98.55
2019-01-05T08:41:39.000Z,99.51
2019-01-05T08:44:58.499Z,99.46
2019-01-05T08:48:25.310Z,99.43
2019-01-05T08:51:39.673Z,99.88
2019-01-05T08:55:10.742Z,99.74
2019-01-05T08:58:37.576Z,99.46
2019-01-05T09:02:35.541Z,99.13
2019-01-05T09:06:20.426Z,98.91
2019-01-05T09:09:53.585Z,98.88
2019-01-05T09:13:25.046Z,99.33
2019-01-05T09:16:58.813Z,99.80
2019-01-05T09:20:36.616Z,99.76
2019-01-05T09:24:12.245Z,99.93
2019-01-05T09:27:47.606Z,99.91
2019-01-05T09:31:11.961Z,99.92
2019-01-05T09:34:34.574Z,100.00
2019-01-05T09:38:00.185Z,100.00
2019-01-05T09:41:21.419Z,99.91
2019-01-05T09:44:39.447Z,99.64
2019-01-05T09:48:21.697Z,99.66
2019-01-05T09:52:05.530Z,99.71
2019-01-05T09:55:44.460Z,99.60
2019-01-05T09:59:10.478Z,99.52
2019-01-05T10:02:48.511Z,100.00
2019-01-05T10:06:26.795Z,100.00
2019-01-05T10:09:53.426Z,98.99
2019-01-05T10:13:21.680Z,99.84
2019-01-05T10:16:48.216Z,99.34
2019-01-05T10:20:05.460Z,99.85
2019-01-05T10:23:35.582Z,99.99
2019-01-05T10:27:08.930Z,99.99
2019-01-05T10:30:47.766Z,99.82
2019-01-05T10:34:17.695Z,99.63
2019-01-05T10:37:39.850Z,100.00
2019-01-05T10:41:02.842Z,99.52
2019-01-05T10:44:28.035Z,98.80
2019-01-05T10:47:36.580Z,97.43
2019-01-05T10:51:18.653Z,97.81
2019-01-05T10:54:53.556Z,97.27
2019-01-05T10:58:16.895Z,96.59
2019-01-05T11:01:36.874Z,95.71
2019-01-05T11:04:55.485Z,97.35
2019-01-05T11:08:29.127Z,97.32
2019-01-05T11:12:12.249Z,96.12
2019-01-05T11:15:42.743Z,95.58
2019-01-05T11:19:22.536Z,96.27
2019-01-05T11:23:02.926Z,95.96
2019-01-05T11:26:21.555Z,95.99
2019-01-05T11:29:55.010Z,95.87
2019-01-05T11:33:34.530Z,95.49
2019-01-05T11:37:31.741Z,95.93
2019-01-05T11:40:57.608Z,95.82
2019-01-05T11:44:14.501Z,97.44
2019-01-05T11:47:15.265Z,97.86
2019-01-05T11:50:48.048Z,97.26
2019-01-05T11:54:06.819Z,97.41
2019-01-05T11:57:50.079Z,98.13
2019-01-05T12:01:06.259Z,97.93
2019-01-05T12:05:01.561Z,98.35
2019-01-05T12:08:44.591Z,96.92
2019-01-05T12:12:07.702Z,98.84
2019-01-05T12:15:47.693Z,97.50
2019-01-05T12:19:21.148Z,97.05
2019-01-05T12:22:43.927Z,96.60
2019-01-05T12:26:26.071Z,96.51
2019-01-05T12:29:48.080Z,95.72
2019-01-05T12:33:14.213Z,94.71
2019-01-05T12:37:16.916Z,93.22
2019-01-05T12:40:33.026Z,94.63
2019-01-05T12:44:25.209Z,94.08
2019-01-05T12:47:47.641Z,95.02
2019-01-05T12:50:58.199Z,93.99
2019-01-05T12:54:04.384Z,96.54
2019-01-05T12:57:34.136Z,91.97
2019-01-05T13:01:10.811Z,93.64
2019-01-05T13:05:00.543Z,95.03
2019-01-05T13:08:22.354Z,94.73
2019-01-05T13:11:45.141Z,94.95
2019-01-05T13:15:18.491Z,94.71
2019-01-05T13:18:54.750Z,95.35
2019-01-05T13:22:25.006Z,94.84
2019-01-05T13:26:11.703Z,94.83
2019-01-05T13:29:35.192Z,95.07
2019-01-05T13:33:10.094Z,94.93
2019-01-05T13:36:52.575Z,95.40
2019-01-05T13:40:50.901Z,94.88
2019-01-05T13:44:39.392Z,94.41
2019-01-05T13:48:28.598Z,95.40
2019-01-05T13:51:52.673Z,94.37
2019-01-05T13:54:50.806Z,94.42
2019-01-05T13:57:40.953Z,94.02
2019-01-05T14:00:21.101Z,93.81
2019-01-05T14:03:18.385Z,93.87
2019-01-05T14:06:05.992Z,94.52
2019-01-05T14:09:13.549Z,94.74
2019-01-05T14:12:09.893Z,94.29
2019-01-05T14:15:03.846Z,94.05
2019-01-05T14:17:58.936Z,94.17
2019-01-05T14:20:47.087Z,93.44
2019-01-05T14:23:34.436Z,92.79
2019-01-05T14:26:25.387Z,93.25
2019-01-05T14:29:13.721Z,92.83
2019-01-05T14:32:00.338Z,91.96
2019-01-05T14:34:51.415Z,92.28
2019-01-05T14:37:37.298Z,91.73
2019-01-05T14:40:24.941Z,91.24
2019-01-05T14:43:11.934Z,90.63
2019-01-05T14:46:00.577Z,90.91
2019-01-05T14:48:50.298Z,91.04
2019-01-05T14:51:57.084Z,91.70
2019-01-05T14:54:46.001Z,90.88
2019-01-05T14:57:50.910Z,91.57
2019-01-05T15:00:36.092Z,91.97
2019-01-05T15:03:23.206Z,92.29
2019-01-05T15:06:09.875Z,92.27
2019-01-05T15:09:15.911Z,92.39
2019-01-05T15:12:05.921Z,93.16
2019-01-05T15:14:55.186Z,93.18
2019-01-05T15:17:55.482Z,93.08
2019-01-05T15:20:42.156Z,93.18
2019-01-05T15:23:42.057Z,92.93
2019-01-05T15:26:28.869Z,92.55
2019-01-05T15:29:15.496Z,92.52
2019-01-05T15:32:03.506Z,93.43
2019-01-05T15:34:50.395Z,93.25
2019-01-05T15:37:41.142Z,93.20
2019-01-05T15:40:35.043Z,92.95
2019-01-05T15:43:29.093Z,92.98
2019-01-05T15:46:42.484Z,92.39
2019-01-05T15:49:24.540Z,93.74
2019-01-05T15:52:12.702Z,93.35
2019-01-05T15:55:06.769Z,93.34
2019-01-05T15:57:53.333Z,93.25
2019-01-05T16:00:40.536Z,92.58
2019-01-05T16:03:32.687Z,91.95
2019-01-05T16:06:27.000Z,91.80
2019-01-05T16:09:16.636Z,91.67
2019-01-05T16:12:04.089Z,91.92
2019-01-05T16:14:54.234Z,91.58
2019-01-05T16:17:39.304Z,91.10
2019-01-05T16:20:38.036Z,91.51
2019-01-05T16:23:37.901Z,89.85
2019-01-05T16:26:38.086Z,89.57
2019-01-05T16:29:26.764Z,90.77
2019-01-05T16:32:13.315Z,89.92
2019-01-05T16:34:59.891Z,89.93
2019-01-05T16:37:47.033Z,89.61
2019-01-05T16:40:33.667Z,89.51
2019-01-05T16:43:26.694Z,89.72
2019-01-05T16:46:26.805Z,89.67
2019-01-05T16:49:29.825Z,89.26
2019-01-05T16:52:38.702Z,88.71
2019-01-05T16:55:29.047Z,88.25
2019-01-05T16:58:36.840Z,87.79
2019-01-05T17:01:33.773Z,88.52
2019-01-05T17:04:35.349Z,88.12
2019-01-05T17:07:43.308Z,88.12
2019-01-05T17:10:31.372Z,88.13
2019-01-05T17:13:31.366Z,87.62
2019-01-05T17:16:17.046Z,88.18
2019-01-05T17:19:05.185Z,88.01
2019-01-05T17:22:07.171Z,86.21
2019-01-05T17:24:53.767Z,87.03
2019-01-05T17:27:42.359Z,87.10
2019-01-05T17:30:33.011Z,86.92
2019-01-05T17:33:33.678Z,86.41
2019-01-05T17:36:24.015Z,86.55
2019-01-05T17:39:27.314Z,87.16
2019-01-05T17:42:16.228Z,87.22
2019-01-05T17:45:22.946Z,88.05
2019-01-05T17:48:25.175Z,85.46
2019-01-05T17:51:22.051Z,87.10
2019-01-05T17:54:12.572Z,86.60
2019-01-05T17:56:46.807Z,86.53
2019-01-05T17:59:54.137Z,87.00
2019-01-05T18:03:03.803Z,87.55
2019-01-05T18:05:52.425Z,87.44
2019-01-05T18:08:29.416Z,87.43
2019-01-05T18:11:10.052Z,87.78
2019-01-05T18:13:57.863Z,88.18
2019-01-05T18:16:44.922Z,87.93
2019-01-05T18:19:44.396Z,87.79
2019-01-05T18:22:36.244Z,87.70
2019-01-05T18:25:36.559Z,88.60
2019-01-05T18:28:25.640Z,88.53
2019-01-05T18:31:12.829Z,88.17
2019-01-05T18:33:59.547Z,87.85
2019-01-05T18:36:48.485Z,88.68
2019-01-05T18:39:39.241Z,87.66
2019-01-05T18:42:45.627Z,87.50
2019-01-05T18:45:32.584Z,87.41
2019-01-05T18:48:20.754Z,87.05
2019-01-05T18:51:11.411Z,87.25
2019-01-05T18:54:12.010Z,87.77
2019-01-05T18:56:58.981Z,86.87
2019-01-05T18:59:56.187Z,87.17
2019-01-05T19:02:47.084Z,87.09
2019-01-05T19:05:35.018Z,86.55
2019-01-05T19:08:23.991Z,87.71
2019-01-05T19:11:10.794Z,88.71
2019-01-05T19:14:11.253Z,88.26
2019-01-05T19:17:02.460Z,88.08
2019-01-05T19:19:54.485Z,88.06
2019-01-05T19:22:57.503Z,88.01
2019-01-05T19:25:44.619Z,87.44
2019-01-05T19:28:22.488Z,88.36
2019-01-05T19:31:11.221Z,88.49
2019-01-05T19:34:02.357Z,88.28
2019-01-05T19:36:53.044Z,88.75
2019-01-05T19:39:39.684Z,88.17
2019-01-05T19:42:28.188Z,88.47
2019-01-05T19:45:17.499Z,87.89
2019-01-05T19:48:04.167Z,86.67
2019-01-05T19:50:51.449Z,86.27
2019-01-05T19:53:46.089Z,86.75
2019-01-05T19:56:34.308Z,87.25
2019-01-05T19:59:20.257Z,86.33
2019-01-05T20:02:26.720Z,87.12
2019-01-05T20:05:17.943Z,87.02
2019-01-05T20:08:13.312Z,86.85
2019-01-05T20:11:03.422Z,87.19
2019-01-05T20:13:46.546Z,87.65
2019-01-05T20:16:36.904Z,87.77
2019-01-05T20:19:25.115Z,87.52
2019-01-05T20:22:16.593Z,87.29
2019-01-05T20:25:27.635Z,87.87
2019-01-05T20:28:32.253Z,87.05
2019-01-05T20:31:17.174Z,87.92
2019-01-05T20:34:08.350Z,86.77
2019-01-05T20:36:59.547Z,86.84
2019-01-05T20:39:53.818Z,86.88
2019-01-05T20:43:02.237Z,87.10
2019-01-05T20:46:00.528Z,87.00
2019-01-05T20:48:45.610Z,86.52
2019-01-05T20:51:42.236Z,87.09
2019-01-05T20:54:38.755Z,87.17
2019-01-05T20:57:25.474Z,87.70
2019-01-05T21:00:12.331Z,88.31
2019-01-05T21:03:32.228Z,87.62
2019-01-05T21:06:20.128Z,87.48
2019-01-05T21:09:14.159Z,87.78
2019-01-05T21:12:03.587Z,87.82
2019-01-05T21:14:58.811Z,87.73
2019-01-05T21:17:52.656Z,86.87
2019-01-05T21:20:55.623Z,87.79
2019-01-05T21:23:55.817Z,88.42
2019-01-05T21:26:43.803Z,88.08
2019-01-05T21:29:44.120Z,87.22
2019-01-05T21:32:32.910Z,86.82
2019-01-05T21:35:25.267Z,86.75
2019-01-05T21:38:20.883Z,87.19
2019-01-05T21:41:15.734Z,87.61
2019-01-05T21:44:09.920Z,87.61
2019-01-05T21:46:56.474Z,88.33
2019-01-05T21:49:53.695Z,87.95
2019-01-05T21:52:44.634Z,88.46
2019-01-05T21:55:41.416Z,88.90
2019-01-05T21:58:34.073Z,88.80
2019-01-05T22:01:22.713Z,89.01
2019-01-05T22:04:19.990Z,88.62
2019-01-05T22:07:13.018Z,88.89
2019-01-05T22:09:55.546Z,89.26
2019-01-05T22:13:04.182Z,89.53
2019-01-05T22:15:53.766Z,88.22
2019-01-05T22:18:40.414Z,88.23
2019-01-05T22:21:27.229Z,87.89
2019-01-05T22:24:23.882Z,87.97
2019-01-05T22:27:10.668Z,87.99
2019-01-05T22:30:05.186Z,88.25
2019-01-05T22:32:54.828Z,88.12
2019-01-05T22:35:52.695Z,88.47
2019-01-05T22:38:43.643Z,88.22
2019-01-05T22:41:31.766Z,88.70
2019-01-05T22:44:18.529Z,88.98
2019-01-05T22:47:24.140Z,89.09
2019-01-05T22:50:10.387Z,89.28
2019-01-05T22:53:02.789Z,89.15
2019-01-05T22:55:53.780Z,89.67
2019-01-05T22:58:40.366Z,89.94
2019-01-05T23:01:37.519Z,89.66
2019-01-05T23:04:37.545Z,89.95
2019-01-05T23:07:34.919Z,89.25
2019-01-05T23:10:41.212Z,89.36
2019-01-05T23:13:28.037Z,89.59
2019-01-05T23:16:10.143Z,90.18
2019-01-05T23:19:03.493Z,89.87
2019-01-05T23:22:06.128Z,89.53
2019-01-05T23:24:52.889Z,89.84
2019-01-05T23:27:39.835Z,89.35
2019-01-05T23:30:37.267Z,90.52
2019-01-05T23:33:22.419Z,90.29
2019-01-05T23:36:19.377Z,90.39
2019-01-05T23:39:21.195Z,89.92
2019-01-05T23:42:08.026Z,90.28
2019-01-05T23:44:56.997Z,90.24
2019-01-05T23:47:43.875Z,90.28
2019-01-05T23:50:30.802Z,89.80
2019-01-05T23:53:13.877Z,89.95
2019-01-05T23:56:00.416Z,90.08
2019-01-05T23:58:47.357Z,90.13
